createdAt,value
2018-05-21T00:02:30.943Z,92.25
2018-05-21T00:05:03.304Z,87.88
2018-05-21T00:07:35.666Z,91.55
2018-05-21T00:10:07.435Z,93.57
2018-05-21T00:12:40.440Z,98.22
2018-05-21T00:15:32.198Z,95.32
2018-05-21T00:18:05.180Z,86.32
2018-05-21T00:20:36.806Z,92.35
2018-05-21T00:23:10.887Z,86.43
2018-05-21T00:25:42.464Z,94.25
2018-05-21T00:28:14.635Z,87.20
2018-05-21T00:30:57.074Z,86.28
2018-05-21T00:33:28.513Z,84.50
2018-05-21T00:35:59.732Z,86.57
2018-05-21T00:38:36.963Z,88.15
2018-05-21T00:41:08.284Z,90.03
2018-05-21T00:43:40.986Z,91.35
2018-05-21T00:49:21.443Z,87.55
2018-05-21T00:51:53.379Z,87.25
2018-05-21T00:54:24.958Z,87.35
2018-05-21T00:56:58.276Z,88.62
2018-05-21T01:02:32.395Z,93.90
2018-05-21T01:05:04.249Z,86.45
2018-05-21T01:07:40.228Z,90.45
2018-05-21T01:10:11.651Z,87.07
2018-05-21T01:12:42.998Z,82.78
2018-05-21T01:15:14.451Z,88.10
2018-05-21T01:17:45.924Z,88.25
2018-05-21T01:20:26.850Z,90.12
2018-05-21T01:22:58.462Z,89.82
2018-05-21T01:25:32.496Z,88.05
2018-05-21T01:28:10.483Z,89.90
2018-05-21T01:30:41.916Z,84.90
2018-05-21T01:33:13.641Z,87.75
2018-05-21T01:35:52.579Z,84.60
2018-05-21T01:38:24.028Z,88.07
2018-05-21T01:40:55.472Z,89.22
2018-05-21T01:43:27.263Z,84.90
2018-05-21T01:45:58.675Z,89.40
2018-05-21T01:48:30.863Z,84.55
2018-05-21T01:51:02.089Z,86.12
2018-05-21T01:53:33.951Z,91.85
2018-05-21T01:56:18.338Z,89.10
2018-05-21T01:58:50.431Z,86.78
2018-05-21T02:01:21.734Z,82.47
2018-05-21T02:03:53.909Z,84.25
2018-05-21T02:06:25.336Z,83.40
2018-05-21T02:08:56.719Z,87.22
2018-05-21T02:11:28.006Z,86.32
2018-05-21T02:13:59.621Z,88.70
2018-05-21T02:19:39.603Z,81.82
2018-05-21T02:22:11.391Z,85.55
2018-05-21T02:24:42.809Z,85.72
2018-05-21T02:27:27.255Z,91.00
2018-05-21T02:29:59.976Z,92.43
2018-05-21T02:32:31.480Z,81.50
2018-05-21T02:35:03.992Z,84.18
2018-05-21T02:37:35.404Z,84.35
2018-05-21T02:40:06.859Z,85.93
2018-05-21T02:42:44.458Z,83.03
2018-05-21T02:45:15.911Z,78.43
2018-05-21T02:47:48.148Z,80.28
2018-05-21T02:50:24.099Z,83.60
2018-05-21T02:52:59.651Z,82.43
2018-05-21T02:55:32.555Z,75.65
2018-05-21T02:58:04.895Z,81.03
2018-05-21T03:00:36.581Z,80.07
2018-05-21T03:03:09.910Z,89.07
2018-05-21T03:05:41.423Z,82.80
2018-05-21T03:08:12.944Z,77.87
2018-05-21T03:13:41.264Z,76.80
2018-05-21T03:16:12.547Z,78.50
2018-05-21T03:18:50.103Z,83.97
2018-05-21T03:21:21.923Z,83.75
2018-05-21T03:23:54.449Z,85.43
2018-05-21T03:26:31.618Z,85.78
2018-05-21T03:29:02.984Z,86.15
2018-05-21T03:31:34.351Z,83.05
2018-05-21T03:34:25.667Z,89.53
2018-05-21T03:36:57.364Z,85.55
2018-05-21T03:39:28.747Z,85.70
2018-05-21T03:42:00.479Z,82.82
2018-05-21T03:44:32.478Z,80.62
2018-05-21T03:47:04.212Z,82.35
2018-05-21T03:49:39.710Z,81.50
2018-05-21T03:52:11.077Z,84.13
2018-05-21T03:54:42.435Z,80.47
2018-05-21T03:57:19.990Z,75.68
2018-05-21T04:00:01.985Z,75.20
2018-05-21T04:03:46.162Z,78.15
2018-05-21T04:06:17.568Z,84.13
2018-05-21T04:08:49.227Z,79.47
2018-05-21T04:11:20.677Z,84.13
2018-05-21T04:13:52.038Z,88.80
2018-05-21T04:16:25.204Z,83.43
2018-05-21T04:18:57.682Z,83.12
2018-05-21T04:21:29.676Z,83.00
2018-05-21T04:24:01.616Z,79.00
2018-05-21T04:26:32.970Z,84.13
2018-05-21T04:29:04.632Z,83.78
2018-05-21T04:31:35.955Z,78.93
2018-05-21T04:34:07.623Z,84.50
2018-05-21T04:36:39.179Z,84.93
2018-05-21T04:39:10.432Z,80.25
2018-05-21T04:41:43.101Z,76.12
2018-05-21T04:44:14.676Z,88.35
2018-05-21T04:46:46.104Z,84.10
2018-05-21T04:49:17.883Z,87.47
2018-05-21T04:51:49.234Z,85.40
2018-05-21T04:54:33.689Z,91.00
2018-05-21T04:57:05.471Z,86.22
2018-05-21T04:59:36.691Z,79.62
2018-05-21T05:02:08.042Z,83.00
2018-05-21T05:04:39.107Z,86.10
2018-05-21T05:07:10.130Z,84.40
2018-05-21T05:09:41.722Z,85.10
2018-05-21T05:12:13.120Z,87.45
2018-05-21T05:14:44.218Z,84.78
2018-05-21T05:17:15.520Z,85.15
2018-05-21T05:19:46.854Z,87.93
2018-05-21T05:22:25.683Z,86.03
2018-05-21T05:24:57.287Z,94.15
2018-05-21T05:27:28.667Z,90.55
2018-05-21T05:30:00.544Z,91.55
2018-05-21T05:32:31.682Z,83.85
2018-05-21T05:35:03.336Z,91.95
2018-05-21T05:37:34.779Z,92.53
2018-05-21T05:40:06.236Z,86.63
2018-05-21T05:42:43.723Z,78.72
2018-05-21T05:45:15.179Z,84.40
2018-05-21T05:47:46.532Z,87.28
2018-05-21T05:50:18.262Z,87.10
2018-05-21T05:52:49.739Z,92.75
2018-05-21T05:55:21.191Z,88.95
2018-05-21T05:57:55.017Z,84.53
2018-05-21T06:00:27.754Z,84.78
2018-05-21T06:02:59.499Z,85.38
2018-05-21T06:05:31.859Z,92.45
2018-05-21T06:08:04.272Z,91.55
2018-05-21T06:10:35.751Z,89.18
2018-05-21T06:13:25.019Z,91.40
2018-05-21T06:15:56.734Z,87.45
2018-05-21T06:18:28.202Z,91.03
2018-05-21T06:20:59.664Z,90.05
2018-05-21T06:23:31.115Z,90.53
2018-05-21T06:26:03.152Z,87.35
2018-05-21T06:28:48.266Z,91.72
2018-05-21T06:31:19.713Z,88.28
2018-05-21T06:33:51.361Z,94.30
2018-05-21T06:36:22.695Z,89.20
2018-05-21T06:38:54.715Z,97.43
2018-05-21T06:41:26.139Z,88.93
2018-05-21T06:43:57.452Z,86.85
2018-05-21T06:46:29.243Z,91.72
2018-05-21T06:49:09.184Z,91.28
2018-05-21T06:51:41.145Z,92.15
2018-05-21T06:54:12.679Z,90.70
2018-05-21T06:56:44.166Z,86.03
2018-05-21T06:59:15.680Z,92.65
2018-05-21T07:01:47.476Z,94.05
2018-05-21T07:04:19.087Z,94.65
2018-05-21T07:07:12.483Z,92.90
2018-05-21T07:09:44.224Z,89.35
2018-05-21T07:12:15.794Z,85.65
2018-05-21T07:14:49.775Z,84.78
2018-05-21T07:17:21.735Z,93.25
2018-05-21T07:19:53.412Z,84.07
2018-05-21T07:22:32.652Z,84.60
2018-05-21T07:25:04.383Z,91.75
2018-05-21T07:27:36.223Z,88.68
2018-05-21T07:30:10.255Z,85.38
2018-05-21T07:32:41.956Z,85.18
2018-05-21T07:35:13.894Z,88.82
2018-05-21T07:37:47.608Z,89.00
2018-05-21T07:40:19.131Z,97.40
2018-05-21T07:42:50.803Z,92.12
2018-05-21T07:45:22.747Z,90.38
2018-05-21T07:47:54.775Z,94.37
2018-05-21T07:50:30.161Z,88.95
2018-05-21T07:53:02.627Z,87.60
2018-05-21T07:55:34.496Z,92.07
2018-05-21T07:58:08.926Z,88.25
2018-05-21T08:00:40.472Z,88.07
2018-05-21T08:03:13.243Z,87.12
2018-05-21T08:05:44.498Z,84.10
2018-05-21T08:08:16.175Z,85.12
2018-05-21T08:10:48.846Z,91.68
2018-05-21T08:13:20.855Z,92.45
2018-05-21T08:15:52.250Z,84.53
2018-05-21T08:18:27.283Z,93.35
2018-05-21T08:20:58.836Z,88.93
2018-05-21T08:23:30.406Z,95.03
2018-05-21T08:26:01.971Z,90.20
2018-05-21T08:28:33.465Z,90.00
2018-05-21T08:31:08.557Z,89.22
2018-05-21T08:33:39.999Z,82.10
2018-05-21T08:36:11.431Z,86.45
2018-05-21T08:38:56.832Z,88.35
2018-05-21T08:41:28.151Z,90.95
2018-05-21T08:43:59.743Z,83.62
2018-05-21T08:46:40.510Z,87.72
2018-05-21T08:49:12.383Z,90.82
2018-05-21T08:51:43.679Z,85.65
2018-05-21T08:54:15.955Z,88.62
2018-05-21T08:56:47.411Z,91.12
2018-05-21T08:59:18.775Z,88.68
2018-05-21T09:01:50.315Z,90.07
2018-05-21T09:04:21.887Z,84.30
2018-05-21T09:09:52.394Z,92.37
2018-05-21T09:12:23.926Z,89.55
2018-05-21T09:14:55.648Z,92.03
2018-05-21T09:17:27.011Z,95.82
2018-05-21T09:19:58.444Z,91.82
2018-05-21T09:22:29.841Z,99.95
2018-05-21T09:25:01.393Z,100.18
2018-05-21T09:27:37.887Z,96.53
2018-05-21T09:30:10.979Z,94.05
2018-05-21T09:32:42.422Z,96.85
2018-05-21T09:35:21.375Z,89.65
2018-05-21T09:37:52.795Z,89.82
2018-05-21T09:40:25.542Z,98.47
2018-05-21T09:42:56.942Z,91.10
2018-05-21T09:45:28.404Z,96.10
2018-05-21T09:47:59.855Z,92.65
2018-05-21T09:50:36.523Z,95.00
2018-05-21T09:53:08.976Z,95.20
2018-05-21T09:55:40.351Z,92.40
2018-05-21T09:58:13.776Z,99.00
2018-05-21T10:00:46.105Z,97.88
2018-05-21T10:03:17.435Z,94.03
2018-05-21T10:05:48.536Z,91.18
2018-05-21T10:08:19.779Z,102.22
2018-05-21T10:10:50.842Z,101.55
2018-05-21T10:13:22.444Z,99.47
2018-05-21T10:15:53.688Z,91.35
2018-05-21T10:18:24.734Z,100.90
2018-05-21T10:20:56.083Z,97.30
2018-05-21T10:23:27.095Z,98.72
2018-05-21T10:25:58.815Z,96.20
2018-05-21T10:28:35.752Z,104.35
2018-05-21T10:31:06.863Z,99.40
2018-05-21T10:33:38.131Z,99.43
2018-05-21T10:36:09.490Z,95.62
2018-05-21T10:38:40.847Z,91.85
2018-05-21T10:41:12.879Z,93.55
2018-05-21T10:43:44.514Z,94.95
2018-05-21T10:46:15.950Z,100.32
2018-05-21T10:48:47.662Z,91.40
2018-05-21T10:51:19.093Z,97.05
2018-05-21T10:53:50.562Z,97.25
2018-05-21T10:56:22.251Z,96.37
2018-05-21T10:58:53.599Z,95.68
2018-05-21T11:04:32.471Z,97.47
2018-05-21T11:07:03.767Z,97.85
2018-05-21T11:09:35.136Z,104.28
2018-05-21T11:12:06.579Z,106.18
2018-05-21T11:14:37.915Z,106.53
2018-05-21T11:17:09.252Z,96.10
2018-05-21T11:19:40.332Z,109.47
2018-05-21T11:22:11.668Z,97.12
2018-05-21T11:24:47.800Z,91.18
2018-05-21T11:27:19.139Z,91.37
2018-05-21T11:29:50.634Z,99.05
2018-05-21T11:32:21.981Z,99.32
2018-05-21T11:34:53.176Z,105.43
2018-05-21T11:37:36.044Z,98.93
2018-05-21T11:40:07.392Z,108.22
2018-05-21T11:42:38.434Z,103.50
2018-05-21T11:48:06.559Z,94.20
2018-05-21T11:50:38.408Z,100.07
2018-05-21T11:53:11.098Z,95.68
2018-05-21T11:55:42.932Z,93.70
2018-05-21T11:58:14.544Z,98.45
2018-05-21T12:00:57.296Z,98.32
2018-05-21T12:03:29.251Z,96.97
2018-05-21T12:06:00.604Z,97.18
2018-05-21T12:08:32.531Z,100.55
2018-05-21T12:11:03.899Z,96.70
2018-05-21T12:13:35.297Z,104.93
2018-05-21T12:19:09.135Z,103.60
2018-05-21T12:21:40.528Z,107.30
2018-05-21T12:24:11.978Z,99.18
2018-05-21T12:26:43.331Z,100.57
2018-05-21T12:29:18.674Z,104.65
2018-05-21T12:31:50.246Z,99.80
2018-05-21T12:34:21.595Z,104.78
2018-05-21T12:36:52.918Z,103.95
2018-05-21T12:39:24.429Z,100.80
2018-05-21T12:42:19.492Z,95.57
2018-05-21T12:44:51.420Z,93.30
2018-05-21T12:47:22.779Z,103.10
2018-05-21T12:49:54.438Z,99.97
2018-05-21T12:52:26.144Z,93.45
2018-05-21T12:54:57.836Z,102.78
2018-05-21T12:57:30.804Z,95.57
2018-05-21T13:00:02.463Z,99.87
2018-05-21T13:02:34.071Z,99.35
2018-05-21T13:05:17.377Z,109.53
2018-05-21T13:07:53.465Z,103.95
2018-05-21T13:10:30.747Z,104.68
2018-05-21T13:13:03.820Z,95.78
2018-05-21T13:15:40.476Z,101.40
2018-05-21T13:18:13.631Z,93.85
2018-05-21T13:20:59.284Z,97.20
2018-05-21T13:23:30.703Z,106.37
2018-05-21T13:26:02.662Z,103.62
2018-05-21T13:28:34.541Z,106.57
2018-05-21T13:31:06.915Z,104.22
2018-05-21T13:33:38.382Z,99.03
2018-05-21T13:36:14.912Z,111.82
2018-05-21T13:38:46.267Z,102.70
2018-05-21T13:41:17.655Z,99.22
2018-05-21T13:43:49.375Z,100.12
2018-05-21T13:46:20.883Z,106.35
2018-05-21T13:48:52.271Z,108.55
2018-05-21T13:51:23.952Z,104.68
2018-05-21T13:53:55.317Z,100.62
2018-05-21T13:56:28.092Z,97.80
2018-05-21T13:58:59.479Z,105.32
2018-05-21T14:01:30.785Z,97.90
2018-05-21T14:04:02.227Z,101.30
2018-05-21T14:06:33.727Z,106.97
2018-05-21T14:09:06.575Z,95.57
2018-05-21T14:11:38.059Z,92.18
2018-05-21T14:14:09.343Z,97.32
2018-05-21T14:16:52.719Z,96.78
2018-05-21T14:19:24.349Z,93.70
2018-05-21T14:21:56.111Z,95.07
2018-05-21T14:24:27.454Z,98.82
2018-05-21T14:26:59.082Z,95.25
2018-05-21T14:29:30.523Z,114.95
2018-05-21T14:32:04.715Z,102.22
2018-05-21T14:34:36.934Z,73.35
2018-05-21T14:37:21.361Z,104.57
2018-05-21T14:39:52.899Z,105.00
2018-05-21T14:42:34.476Z,106.32
2018-05-21T14:45:13.507Z,103.75
2018-05-21T14:47:51.654Z,99.35
2018-05-21T14:50:23.943Z,101.75
2018-05-21T14:52:55.691Z,109.28
2018-05-21T14:55:27.142Z,102.95
2018-05-21T14:57:58.399Z,99.95
2018-05-21T15:00:30.307Z,104.68
2018-05-21T15:03:02.487Z,99.37
2018-05-21T15:05:34.182Z,101.30
2018-05-21T15:08:06.262Z,110.45
2018-05-21T15:10:38.846Z,109.35
2018-05-21T15:13:12.200Z,106.80
2018-05-21T15:15:43.275Z,114.37
2018-05-21T15:18:14.718Z,118.10
2018-05-21T15:20:45.719Z,110.20
2018-05-21T15:23:16.768Z,105.93
2018-05-21T15:25:48.127Z,106.90
2018-05-21T15:28:20.741Z,103.40
2018-05-21T15:30:52.609Z,102.47
2018-05-21T15:33:23.963Z,97.72
2018-05-21T15:35:55.281Z,104.38
2018-05-21T15:38:38.006Z,99.15
2018-05-21T15:41:09.343Z,101.47
2018-05-21T15:43:40.680Z,106.55
2018-05-21T15:46:19.323Z,105.05
2018-05-21T15:48:51.640Z,104.68
2018-05-21T15:51:25.783Z,103.32
2018-05-21T15:53:58.085Z,100.32
2018-05-21T15:56:29.508Z,103.35
2018-05-21T15:59:00.879Z,101.62
2018-05-21T16:01:32.211Z,102.82
2018-05-21T16:04:04.907Z,111.75
2018-05-21T16:06:37.567Z,102.75
2018-05-21T16:09:09.264Z,101.65
2018-05-21T16:11:40.275Z,100.43
2018-05-21T16:14:13.069Z,104.97
2018-05-21T16:16:44.595Z,97.53
2018-05-21T16:19:16.186Z,94.50
2018-05-21T16:21:48.827Z,103.62
2018-05-21T16:24:20.308Z,97.70
2018-05-21T16:26:51.378Z,104.70
2018-05-21T16:29:23.145Z,97.05
2018-05-21T16:31:54.251Z,104.57
2018-05-21T16:34:25.298Z,101.47
2018-05-21T16:36:56.637Z,102.00
2018-05-21T16:39:27.916Z,102.62
2018-05-21T16:41:59.324Z,101.70
2018-05-21T16:44:30.780Z,103.03
2018-05-21T16:47:01.851Z,105.25
2018-05-21T16:49:42.559Z,107.22
2018-05-21T16:52:13.580Z,97.90
2018-05-21T16:54:45.374Z,106.35
2018-05-21T16:57:19.027Z,102.75
2018-05-21T16:59:52.273Z,98.05
2018-05-21T17:02:24.444Z,100.87
2018-05-21T17:04:56.275Z,101.28
2018-05-21T17:07:27.651Z,102.35
2018-05-21T17:09:59.025Z,97.50
2018-05-21T17:12:32.428Z,100.65
2018-05-21T17:15:04.144Z,99.32
2018-05-21T17:17:35.164Z,98.97
2018-05-21T17:20:06.139Z,97.43
2018-05-21T17:22:36.941Z,97.85
2018-05-21T17:25:07.765Z,104.22
2018-05-21T17:27:38.908Z,101.20
2018-05-21T17:30:11.769Z,103.55
2018-05-21T17:32:42.625Z,103.78
2018-05-21T17:35:13.456Z,103.85
2018-05-21T17:37:44.264Z,99.43
2018-05-21T17:40:15.421Z,99.10
2018-05-21T17:42:46.225Z,93.68
2018-05-21T17:45:17.072Z,97.22
2018-05-21T17:47:49.565Z,100.20
2018-05-21T17:50:22.127Z,105.78
2018-05-21T17:52:54.496Z,99.32
2018-05-21T17:55:25.991Z,106.90
2018-05-21T17:57:57.192Z,105.12
2018-05-21T18:00:28.713Z,101.43
2018-05-21T18:03:01.533Z,107.32
2018-05-21T18:05:33.336Z,103.80
2018-05-21T18:08:05.784Z,105.87
2018-05-21T18:10:36.929Z,105.12
2018-05-21T18:13:09.740Z,102.40
2018-05-21T18:15:41.115Z,99.87
2018-05-21T18:18:22.469Z,94.03
2018-05-21T18:20:53.285Z,93.50
2018-05-21T18:23:24.319Z,100.62
2018-05-21T18:25:55.376Z,96.43
2018-05-21T18:28:26.460Z,100.43
2018-05-21T18:30:57.812Z,108.80
2018-05-21T18:33:28.757Z,108.82
2018-05-21T18:35:59.691Z,103.65
2018-05-21T18:38:30.836Z,107.10
2018-05-21T18:41:01.677Z,103.65
2018-05-21T18:43:32.472Z,105.90
2018-05-21T18:46:03.610Z,104.12
2018-05-21T18:48:34.925Z,107.53
2018-05-21T18:51:06.225Z,101.78
2018-05-21T18:53:49.315Z,105.70
2018-05-21T18:56:20.477Z,97.95
2018-05-21T18:58:51.577Z,100.28
2018-05-21T19:01:23.146Z,99.40
2018-05-21T19:03:54.180Z,98.07
2018-05-21T19:06:25.737Z,98.75
2018-05-21T19:08:56.817Z,94.87
2018-05-21T19:11:27.999Z,96.25
2018-05-21T19:14:19.120Z,100.65
2018-05-21T19:16:50.482Z,108.60
2018-05-21T19:19:21.571Z,99.00
2018-05-21T19:21:52.785Z,100.62
2018-05-21T19:24:24.164Z,103.10
2018-05-21T19:26:55.276Z,95.75
2018-05-21T19:29:39.602Z,100.87
2018-05-21T19:32:11.299Z,90.20
2018-05-21T19:34:42.515Z,92.07
2018-05-21T19:37:13.351Z,98.10
2018-05-21T19:39:44.140Z,95.32
2018-05-21T19:42:15.264Z,96.47
2018-05-21T19:44:46.083Z,97.10
2018-05-21T19:47:17.257Z,98.72
2018-05-21T19:52:56.327Z,90.65
2018-05-21T19:55:29.332Z,92.90
2018-05-21T19:58:01.181Z,94.80
2018-05-21T20:00:33.064Z,98.68
2018-05-21T20:03:06.143Z,96.72
2018-05-21T20:05:39.224Z,94.18
2018-05-21T20:08:12.286Z,92.40
2018-05-21T20:10:43.796Z,97.60
2018-05-21T20:13:17.110Z,96.00
2018-05-21T20:15:50.495Z,101.25
2018-05-21T20:18:40.386Z,93.97
2018-05-21T20:22:14.537Z,97.90
2018-05-21T20:31:28.348Z,91.87
2018-05-21T20:34:01.971Z,98.80
2018-05-21T20:36:39.169Z,102.68
2018-05-21T20:39:10.460Z,92.93
2018-05-21T20:41:43.116Z,90.87
2018-05-21T20:44:15.210Z,95.65
2018-05-21T20:46:46.923Z,94.50
2018-05-21T20:49:19.029Z,93.62
2018-05-21T20:51:50.280Z,91.43
2018-05-21T20:54:21.732Z,93.60
2018-05-21T20:56:53.252Z,92.55
2018-05-21T20:59:24.888Z,95.47
2018-05-21T21:01:56.218Z,95.05
2018-05-21T21:04:27.783Z,100.35
2018-05-21T21:06:58.976Z,102.87
2018-05-21T21:09:30.537Z,110.05
2018-05-21T21:12:03.006Z,100.03
2018-05-21T21:14:34.565Z,95.00
2018-05-21T21:17:05.934Z,99.87
2018-05-21T21:19:37.556Z,102.25
2018-05-21T21:22:08.626Z,99.47
2018-05-21T21:24:40.147Z,96.22
2018-05-21T21:27:11.421Z,94.28
2018-05-21T21:29:43.097Z,94.60
2018-05-21T21:32:14.404Z,97.25
2018-05-21T21:34:45.926Z,103.90
2018-05-21T21:37:17.133Z,94.43
2018-05-21T21:39:48.349Z,100.12
2018-05-21T21:42:19.517Z,93.62
2018-05-21T21:44:50.815Z,97.10
2018-05-21T21:47:22.106Z,91.40
2018-05-21T21:49:53.410Z,91.32
2018-05-21T21:52:25.197Z,92.12
2018-05-21T21:54:57.603Z,87.65
2018-05-21T21:57:28.831Z,92.78
2018-05-21T22:00:00.270Z,91.18
2018-05-21T22:02:31.761Z,89.85
2018-05-21T22:05:03.535Z,93.35
2018-05-21T22:07:34.761Z,92.80
2018-05-21T22:10:06.213Z,92.90
2018-05-21T22:12:37.621Z,89.65
2018-05-21T22:15:09.776Z,96.18
2018-05-21T22:17:42.102Z,153.90
2018-05-21T22:20:13.400Z,117.78
2018-05-21T22:22:44.682Z,107.57
2018-05-21T22:25:18.184Z,97.97
2018-05-21T22:27:49.562Z,92.32
2018-05-21T22:30:21.293Z,95.82
2018-05-21T22:32:53.186Z,95.35
2018-05-21T22:35:24.929Z,98.15
2018-05-21T22:37:56.197Z,98.07
2018-05-21T22:40:27.522Z,91.30
2018-05-21T22:42:59.035Z,97.53
2018-05-21T22:45:30.926Z,93.60
2018-05-21T22:48:03.386Z,102.32
2018-05-21T22:50:34.810Z,93.90
2018-05-21T22:53:06.666Z,98.03
2018-05-21T22:55:39.081Z,92.78
2018-05-21T22:58:11.561Z,97.53
2018-05-21T23:00:43.511Z,100.55
2018-05-21T23:03:14.725Z,93.12
2018-05-21T23:05:46.223Z,100.32
2018-05-21T23:08:17.660Z,89.05
2018-05-21T23:10:49.156Z,87.93
2018-05-21T23:13:20.609Z,96.05
2018-05-21T23:15:52.249Z,90.90
2018-05-21T23:18:23.660Z,90.62
2018-05-21T23:20:55.413Z,88.12
2018-05-21T23:23:26.729Z,88.78
2018-05-21T23:25:58.231Z,93.10
2018-05-21T23:28:29.547Z,96.60
2018-05-21T23:31:00.945Z,94.60
2018-05-21T23:33:32.385Z,87.30
2018-05-21T23:36:03.969Z,93.37
2018-05-21T23:38:35.419Z,92.88
2018-05-21T23:41:06.730Z,82.78
2018-05-21T23:43:38.211Z,87.07
2018-05-21T23:46:09.666Z,90.03
2018-05-21T23:48:41.077Z,84.22
2018-05-21T23:51:13.085Z,86.28
2018-05-21T23:53:44.427Z,86.20
2018-05-21T23:56:16.098Z,91.28
2018-05-21T23:58:47.513Z,89.60
